Time;durP1;ratioP1;P1;durP2;ratioP2;P2;SDS_P1;SDS_P2;PMS_P1;PMS_P2;Temp;Humidity;BMP_temperature;BMP_pressure;BME280_temperature;BME280_humidity;BME280_pressure;Samples;Min_cycle;Max_cycle;Signal;HPM_P1;HPM_P2
2023/02/02 00:05:54;;;;;;;4.5;2.5;;;;;;;3.4;84.2;97870;;;;
2023/02/02 00:15:54;;;;;;;5.5;2.2;;;;;;;3.1;86.3;97870;;;;
2023/02/02 00:25:54;;;;;;;5.5;2.2;;;;;;;2.6;87.6;97900;;;;
2023/02/02 00:35:54;;;;;;;5.5;2.2;;;;;;;2.4;88.7;97900;;;;
2023/02/02 00:46:54;;;;;;;4.1;1.9;;;;;;;2.1;89.4;97910;;;;
2023/02/02 00:57:54;;;;;;;4.1;1.9;;;;;;;1.8;90;97910;;;;
2023/02/02 01:07:54;;;;;;;4.1;1.9;;;;;;;1.6;90.4;97910;;;;
2023/02/02 01:18:54;;;;;;;3.5;1.7;;;;;;;1.4;91.2;97910;;;;
2023/02/02 01:28:54;;;;;;;3.5;1.7;;;;;;;1.3;91.8;97920;;;;
2023/02/02 01:39:54;;;;;;;3.5;1.7;;;;;;;1.4;92;97930;;;;
2023/02/02 01:49:54;;;;;;;5.5;2.4;;;;;;;1.5;92.3;97920;;;;
2023/02/02 02:00:54;;;;;;;5.5;2.4;;;;;;;1.5;92.2;97940;;;;
2023/02/02 02:10:54;;;;;;;5.5;2.4;;;;;;;1.4;92.3;97940;;;;
2023/02/02 02:30:54;;;;;;;9.3;3.2;;;;;;;1.4;92.5;97970;;;;
2023/02/02 02:40:54;;;;;;;9.3;3.2;;;;;;;1.5;92.7;97970;;;;
2023/02/02 02:51:53;;;;;;;4.5;2.3;;;;;;;1.7;92.7;97980;;;;
2023/02/02 03:01:54;;;;;;;4.5;2.3;;;;;;;1.8;92.6;98000;;;;
2023/02/02 03:11:54;;;;;;;7.3;3.5;;;;;;;1.9;92.4;98010;;;;
2023/02/02 03:22:54;;;;;;;7.3;3.5;;;;;;;1.9;92;98020;;;;
2023/02/02 03:33:54;;;;;;;7.3;3.5;;;;;;;2;91.7;98030;;;;
2023/02/02 03:44:53;;;;;;;8.5;3.1;;;;;;;2.1;91.3;98030;;;;
2023/02/02 03:55:54;;;;;;;8.5;3.1;;;;;;;2.1;90.7;98020;;;;
2023/02/02 04:06:53;;;;;;;8.5;3.1;;;;;;;2.2;90.5;98020;;;;
2023/02/02 04:16:54;;;;;;;7.7;3.4;;;;;;;2.2;90.4;98030;;;;
2023/02/02 04:26:53;;;;;;;7.7;3.4;;;;;;;2.3;90.2;98030;;;;
2023/02/02 04:37:53;;;;;;;7.7;3.4;;;;;;;2.3;90;98020;;;;
2023/02/02 04:47:54;;;;;;;4.7;2.5;;;;;;;2.3;89.5;98020;;;;
2023/02/02 04:58:53;;;;;;;4.7;2.5;;;;;;;2.3;89;98020;;;;
2023/02/02 05:08:53;;;;;;;4.7;2.5;;;;;;;2.4;88.5;98020;;;;
2023/02/02 05:18:53;;;;;;;4.8;2.2;;;;;;;2.4;88.2;98020;;;;
2023/02/02 05:29:53;;;;;;;4.8;2.2;;;;;;;2.4;87.6;98020;;;;
2023/02/02 05:39:53;;;;;;;4.8;2.2;;;;;;;2.5;87.1;98020;;;;
2023/02/02 05:49:53;;;;;;;4.1;1.9;;;;;;;2.6;86.2;98030;;;;
2023/02/02 05:59:53;;;;;;;4.1;1.9;;;;;;;2.6;85.1;98020;;;;
2023/02/02 06:09:53;;;;;;;4.1;1.9;;;;;;;2.7;83.3;98010;;;;
2023/02/02 06:19:53;;;;;;;5.2;1.9;;;;;;;2.8;81.3;98010;;;;
2023/02/02 06:29:53;;;;;;;5.2;1.9;;;;;;;3.1;79.9;98010;;;;
2023/02/02 06:39:53;;;;;;;5.2;1.9;;;;;;;3.2;79.1;98010;;;;
2023/02/02 06:50:53;;;;;;;3.5;1.8;;;;;;;3.2;79.5;98010;;;;
2023/02/02 07:00:53;;;;;;;3.5;1.8;;;;;;;3.2;79;98000;;;;
2023/02/02 07:11:53;;;;;;;3;1.6;;;;;;;3.3;79;98000;;;;
2023/02/02 07:21:54;;;;;;;3;1.6;;;;;;;3.3;79.1;98010;;;;
2023/02/02 07:31:53;;;;;;;3;1.6;;;;;;;3.3;79.7;98020;;;;
2023/02/02 07:41:54;;;;;;;5.9;2.2;;;;;;;3.3;80.7;98020;;;;
2023/02/02 07:52:53;;;;;;;5.9;2.2;;;;;;;3;82.6;98030;;;;
2023/02/02 08:02:53;;;;;;;5.9;2.2;;;;;;;2.8;84.8;98010;;;;
2023/02/02 08:13:54;;;;;;;4.6;2.1;;;;;;;2.8;85.8;98000;;;;
2023/02/02 08:24:53;;;;;;;4.6;2.1;;;;;;;2.7;86.3;98000;;;;
2023/02/02 08:34:53;;;;;;;4.6;2.1;;;;;;;2.7;86.5;97990;;;;
2023/02/02 08:44:53;;;;;;;4.6;2.3;;;;;;;2.8;86.6;98000;;;;
2023/02/02 08:55:53;;;;;;;4.6;2.3;;;;;;;2.9;87.3;97990;;;;
2023/02/02 09:06:53;;;;;;;4.6;2.3;;;;;;;3;87.4;97990;;;;
2023/02/02 09:16:54;;;;;;;5.9;2;;;;;;;2.9;86.6;97980;;;;
2023/02/02 09:27:53;;;;;;;5.9;2;;;;;;;3.1;86.5;97990;;;;
2023/02/02 09:38:53;;;;;;;5.9;2;;;;;;;3.2;87;98010;;;;
2023/02/02 09:49:53;;;;;;;6.3;2.3;;;;;;;3.2;87.3;98030;;;;
2023/02/02 10:00:53;;;;;;;6.3;2.3;;;;;;;3;88.1;98040;;;;
2023/02/02 10:10:53;;;;;;;7;2.5;;;;;;;2.7;88.9;98050;;;;
2023/02/02 10:20:53;;;;;;;7;2.5;;;;;;;2.5;89.5;98050;;;;
2023/02/02 10:31:53;;;;;;;7;2.5;;;;;;;2.3;90.2;98060;;;;
2023/02/02 10:43:44;;;;;;;6.9;3.4;;;;;;;2.2;90.5;98070;;;;
2023/02/02 10:53:53;;;;;;;6.9;3.4;;;;;;;2.1;90.8;98100;;;;
2023/02/02 11:14:53;;;;;;;7.5;4.3;;;;;;;2.4;91.9;98110;;;;
2023/02/02 11:25:53;;;;;;;7.5;4.3;;;;;;;2.5;91.4;98110;;;;
2023/02/02 11:35:53;;;;;;;7.5;4.3;;;;;;;2.8;90.8;98120;;;;
2023/02/02 11:45:53;;;;;;;10.3;5.3;;;;;;;3.1;90.7;98120;;;;
2023/02/02 11:56:53;;;;;;;10.3;5.3;;;;;;;3.3;90.1;98120;;;;
2023/02/02 12:06:53;;;;;;;10.3;5.3;;;;;;;3.5;89.2;98140;;;;
2023/02/02 12:17:53;;;;;;;8.3;3.8;;;;;;;3.7;86.8;98150;;;;
2023/02/02 12:28:53;;;;;;;8.3;3.8;;;;;;;3.6;87.1;98170;;;;
2023/02/02 12:38:54;;;;;;;8.3;3.8;;;;;;;3.6;86.7;98170;;;;
2023/02/02 12:49:53;;;;;;;4.2;2.5;;;;;;;3.6;85.3;98190;;;;
2023/02/02 12:59:53;;;;;;;4.2;2.5;;;;;;;3.7;85.8;98220;;;;
2023/02/02 13:10:53;;;;;;;7.7;4.3;;;;;;;3.7;86.1;98230;;;;
2023/02/02 13:20:53;;;;;;;7.7;4.3;;;;;;;3.6;86.2;98250;;;;
2023/02/02 13:30:53;;;;;;;7.7;4.3;;;;;;;3.7;86.4;98260;;;;
2023/02/02 13:40:54;;;;;;;6.5;3.9;;;;;;;3.8;86.1;98270;;;;
2023/02/02 13:51:53;;;;;;;6.5;3.9;;;;;;;3.7;85.5;98290;;;;
2023/02/02 14:01:53;;;;;;;6.5;3.9;;;;;;;3.7;85.7;98310;;;;
2023/02/02 14:12:53;;;;;;;10.4;4.3;;;;;;;3.7;86.1;98330;;;;
2023/02/02 14:22:53;;;;;;;10.4;4.3;;;;;;;3.8;85.1;98340;;;;
2023/02/02 14:32:53;;;;;;;10.4;4.3;;;;;;;3.9;84;98350;;;;
2023/02/02 14:43:53;;;;;;;8;4.8;;;;;;;3.9;83.3;98380;;;;
2023/02/02 14:53:53;;;;;;;8;4.8;;;;;;;3.9;82.8;98390;;;;
2023/02/02 15:03:53;;;;;;;8;4.8;;;;;;;3.8;83.2;98400;;;;
2023/02/02 15:14:53;;;;;;;13.7;5.2;;;;;;;3.7;82.9;98420;;;;
2023/02/02 15:24:53;;;;;;;13.7;5.2;;;;;;;3.7;82.7;98450;;;;
2023/02/02 15:34:53;;;;;;;13.7;5.2;;;;;;;3.7;82.1;98470;;;;
2023/02/02 15:44:53;;;;;;;11.4;6.4;;;;;;;3.6;82;98500;;;;
2023/02/02 15:55:55;;;;;;;11.4;6.4;;;;;;;3.6;82.8;98530;;;;
2023/02/02 16:05:53;;;;;;;11.4;6.4;;;;;;;3.6;82.1;98550;;;;
2023/02/02 16:15:53;;;;;;;12;6.5;;;;;;;3.5;78.7;98570;;;;
2023/02/02 16:26:53;;;;;;;12;6.5;;;;;;;3.4;77.1;98580;;;;
2023/02/02 16:36:53;;;;;;;12;6.5;;;;;;;3.4;76.7;98610;;;;
2023/02/02 16:47:53;;;;;;;11.3;4.7;;;;;;;3.3;75.7;98640;;;;
2023/02/02 16:58:56;;;;;;;11.3;4.7;;;;;;;3.3;74;98660;;;;
2023/02/02 17:09:53;;;;;;;7.8;3.4;;;;;;;3.3;74;98680;;;;
2023/02/02 17:20:56;;;;;;;7.8;3.4;;;;;;;3.2;73.3;98690;;;;
2023/02/02 17:30:53;;;;;;;7.8;3.4;;;;;;;3;72.4;98700;;;;
2023/02/02 17:41:53;;;;;;;6;3.1;;;;;;;2.8;71.9;98720;;;;
2023/02/02 17:52:53;;;;;;;6;3.1;;;;;;;2.6;72.8;98740;;;;
2023/02/02 18:02:53;;;;;;;6;3.1;;;;;;;2.6;73.6;98750;;;;
2023/02/02 18:13:53;;;;;;;7.7;4;;;;;;;2.7;71.6;98770;;;;
2023/02/02 18:24:53;;;;;;;7.7;4;;;;;;;2.7;71.7;98780;;;;
2023/02/02 18:34:54;;;;;;;7.7;4;;;;;;;2.6;70.9;98800;;;;
2023/02/02 18:44:53;;;;;;;7.3;3.7;;;;;;;2.6;70.3;98820;;;;
2023/02/02 18:55:53;;;;;;;7.3;3.7;;;;;;;2.6;70.4;98840;;;;
2023/02/02 19:07:57;;;;;;;7.3;3.7;;;;;;;2.5;69.8;98870;;;;
2023/02/02 19:17:53;;;;;;;7.4;3.1;;;;;;;2.5;70.1;98890;;;;
2023/02/02 19:27:53;;;;;;;7.4;3.1;;;;;;;2.4;71.1;98900;;;;
2023/02/02 19:38:53;;;;;;;5.7;2.4;;;;;;;2.4;72.3;98920;;;;
2023/02/02 19:49:55;;;;;;;5.7;2.4;;;;;;;2.3;73.5;98940;;;;
2023/02/02 19:59:53;;;;;;;5.7;2.4;;;;;;;2.3;74.2;98960;;;;
2023/02/02 20:10:53;;;;;;;9.7;4.6;;;;;;;2.1;76.8;98980;;;;
2023/02/02 20:21:53;;;;;;;9.7;4.6;;;;;;;1.9;78.4;98990;;;;
2023/02/02 20:31:53;;;;;;;9.7;4.6;;;;;;;1.8;79.1;99010;;;;
2023/02/02 20:41:53;;;;;;;14.8;7.5;;;;;;;1.7;79.7;99030;;;;
2023/02/02 20:52:54;;;;;;;14.8;7.5;;;;;;;1.7;79.1;99040;;;;
2023/02/02 21:03:53;;;;;;;14.8;7.5;;;;;;;1.8;78.5;99070;;;;
2023/02/02 21:14:53;;;;;;;9.2;4.4;;;;;;;1.6;81.7;99090;;;;
2023/02/02 21:25:53;;;;;;;9.2;4.4;;;;;;;1.3;86.6;99110;;;;
2023/02/02 21:36:53;;;;;;;9.2;4.4;;;;;;;1.1;88.4;99130;;;;
2023/02/02 21:46:53;;;;;;;9;4.5;;;;;;;1.1;88.6;99130;;;;
2023/02/02 21:57:53;;;;;;;9;4.5;;;;;;;1.1;88;99140;;;;
2023/02/02 22:08:53;;;;;;;12.2;5.7;;;;;;;1.2;87.5;99170;;;;
2023/02/02 22:19:53;;;;;;;12.2;5.7;;;;;;;1.2;85.5;99180;;;;
2023/02/02 22:30:53;;;;;;;12.2;5.7;;;;;;;1.2;85;99200;;;;
2023/02/02 22:41:53;;;;;;;12.5;6.4;;;;;;;1.3;84.5;99200;;;;
2023/02/02 22:51:53;;;;;;;12.5;6.4;;;;;;;1.3;83.7;99210;;;;
2023/02/02 23:01:53;;;;;;;12.5;6.4;;;;;;;1.3;83.5;99230;;;;
2023/02/02 23:12:53;;;;;;;10.8;4.6;;;;;;;1.3;83.3;99240;;;;
2023/02/02 23:22:53;;;;;;;10.8;4.6;;;;;;;1.3;83.5;99240;;;;
2023/02/02 23:33:53;;;;;;;10.8;4.6;;;;;;;1.2;84.4;99250;;;;
2023/02/02 23:43:53;;;;;;;10.1;4.9;;;;;;;1.2;85.1;99260;;;;
2023/02/02 23:54:53;;;;;;;10.1;4.9;;;;;;;1.1;85.3;99290;;;;
